Airfield :
LOGIN :

Register | Disclaimer

   EN    FR    IT 

 










Legend :    VFR   Marginal VFR   IFR   Intensive IFR   Very Intensive IFR
Visi :
Ceiling :
>= 8 km
>= 3000ft
5 to 8 km
1000 to 3000 ft
1500m to 5 km
500 to 1000 ft
800 to 1500m
200 to 500 ft
< 800m
< 200 ft
Symbols :   Thunderstorms  Fog  Heavy snow  Heavy precipitations  Wind > 20 kt
SIGMETs :     Misc.  Thunderstorms  Icing  Turbulence  Mountain Waves  Volcanic Ashes






- Airport Elevation : 278 ft
- IATA code : RJK


LDRI - Rijeka

CURRENT METAR :
  • 162200Z 16001KT CAVOK 22/21 Q1013

EXPIRED METARs :
  • 162130Z 36001KT 9999 FEW027 23/21 Q1013
  • 162100Z 24003KT 9999 FEW027 23/21 Q1013
  • 162030Z 00000KT 9999 FEW027 23/21 Q1013
  • 162000Z VRB03KT 9999 FEW027 24/21 Q1012
  • 161930Z 35003KT 9999 SCT027 24/21 Q1012

TAF TAF LDRI
Valid from the 16 at 18:00 until the 17 at 18:00 UTC


161725Z 1618/1718 30005KT CAVOK TX32/1713Z TN20/1704Z
TEMPO 1710/1716 32007KT



MET'MAP, your aeronautical weather chart ! - Copyright ORBIFLY December 2007 - Disclaimer

ORBIFLY MET'MAP TEAM :

Programming & Development : Alexandra Zaïnal
Original concept : Baudouin d'Aumeries
Technical & hardware support : Manuel Goepfert
Assistance : Marc-Olivier Méhu




SOURCES & CREDITS :

   NOAA